sensor_id;sensor_type;location;lat;lon;timestamp;P1;durP1;ratioP1;P2;durP2;ratioP2
32826;SDS011;51059;42.058;27.986;2024-02-28T00:01:57;22.07;;;12.70;;
32826;SDS011;51059;42.058;27.986;2024-02-28T00:04:22;21.80;;;11.93;;
32826;SDS011;51059;42.058;27.986;2024-02-28T00:06:48;24.07;;;11.37;;
32826;SDS011;51059;42.058;27.986;2024-02-28T00:09:14;23.77;;;10.27;;
32826;SDS011;51059;42.058;27.986;2024-02-28T00:11:44;19.97;;;9.53;;
32826;SDS011;51059;42.058;27.986;2024-02-28T00:14:11;21.33;;;9.87;;
32826;SDS011;51059;42.058;27.986;2024-02-28T00:16:45;23.87;;;9.63;;
32826;SDS011;51059;42.058;27.986;2024-02-28T00:19:13;19.83;;;9.13;;
32826;SDS011;51059;42.058;27.986;2024-02-28T00:21:39;21.00;;;10.17;;
32826;SDS011;51059;42.058;27.986;2024-02-28T00:24:08;19.60;;;10.07;;
32826;SDS011;51059;42.058;27.986;2024-02-28T00:26:35;24.13;;;11.60;;
32826;SDS011;51059;42.058;27.986;2024-02-28T00:29:03;25.63;;;12.43;;
32826;SDS011;51059;42.058;27.986;2024-02-28T00:31:29;21.17;;;12.30;;
32826;SDS011;51059;42.058;27.986;2024-02-28T00:33:54;24.07;;;12.47;;
32826;SDS011;51059;42.058;27.986;2024-02-28T00:36:20;27.63;;;12.13;;
32826;SDS011;51059;42.058;27.986;2024-02-28T00:38:46;22.73;;;12.63;;
32826;SDS011;51059;42.058;27.986;2024-02-28T00:41:13;25.43;;;12.53;;
32826;SDS011;51059;42.058;27.986;2024-02-28T00:43:39;25.10;;;11.90;;
32826;SDS011;51059;42.058;27.986;2024-02-28T00:46:06;22.23;;;10.43;;
32826;SDS011;51059;42.058;27.986;2024-02-28T00:48:36;22.30;;;11.03;;
32826;SDS011;51059;42.058;27.986;2024-02-28T00:51:03;20.47;;;10.33;;
32826;SDS011;51059;42.058;27.986;2024-02-28T00:53:28;24.10;;;10.40;;
32826;SDS011;51059;42.058;27.986;2024-02-28T00:55:54;20.83;;;10.40;;
32826;SDS011;51059;42.058;27.986;2024-02-28T00:58:20;22.83;;;9.90;;
32826;SDS011;51059;42.058;27.986;2024-02-28T01:00:47;21.47;;;10.67;;
32826;SDS011;51059;42.058;27.986;2024-02-28T01:03:13;23.30;;;10.83;;
32826;SDS011;51059;42.058;27.986;2024-02-28T01:05:41;23.33;;;10.43;;
32826;SDS011;51059;42.058;27.986;2024-02-28T01:08:07;20.87;;;10.23;;
32826;SDS011;51059;42.058;27.986;2024-02-28T01:10:34;27.97;;;11.30;;
32826;SDS011;51059;42.058;27.986;2024-02-28T01:13:00;20.90;;;10.17;;
32826;SDS011;51059;42.058;27.986;2024-02-28T01:15:26;22.13;;;10.67;;
32826;SDS011;51059;42.058;27.986;2024-02-28T01:17:52;23.50;;;10.87;;
32826;SDS011;51059;42.058;27.986;2024-02-28T01:20:19;21.70;;;10.87;;
32826;SDS011;51059;42.058;27.986;2024-02-28T01:22:45;16.83;;;9.83;;
32826;SDS011;51059;42.058;27.986;2024-02-28T01:25:11;26.47;;;10.10;;
32826;SDS011;51059;42.058;27.986;2024-02-28T01:27:36;20.23;;;10.83;;
32826;SDS011;51059;42.058;27.986;2024-02-28T01:30:02;21.37;;;10.50;;
32826;SDS011;51059;42.058;27.986;2024-02-28T01:32:29;21.30;;;10.37;;
32826;SDS011;51059;42.058;27.986;2024-02-28T01:34:55;23.87;;;10.00;;
32826;SDS011;51059;42.058;27.986;2024-02-28T01:37:21;21.80;;;10.47;;
32826;SDS011;51059;42.058;27.986;2024-02-28T01:39:49;19.83;;;10.17;;
32826;SDS011;51059;42.058;27.986;2024-02-28T01:42:15;23.23;;;10.60;;
32826;SDS011;51059;42.058;27.986;2024-02-28T01:44:43;18.37;;;9.60;;
32826;SDS011;51059;42.058;27.986;2024-02-28T01:47:11;19.87;;;9.97;;
32826;SDS011;51059;42.058;27.986;2024-02-28T01:49:39;23.23;;;10.90;;
32826;SDS011;51059;42.058;27.986;2024-02-28T01:52:09;21.03;;;10.13;;
32826;SDS011;51059;42.058;27.986;2024-02-28T01:54:35;20.70;;;10.10;;
32826;SDS011;51059;42.058;27.986;2024-02-28T01:57:01;22.90;;;10.13;;
32826;SDS011;51059;42.058;27.986;2024-02-28T01:59:28;18.37;;;9.57;;
32826;SDS011;51059;42.058;27.986;2024-02-28T02:01:56;16.87;;;9.27;;
32826;SDS011;51059;42.058;27.986;2024-02-28T02:04:21;20.47;;;9.30;;
32826;SDS011;51059;42.058;27.986;2024-02-28T02:06:48;22.73;;;10.53;;
32826;SDS011;51059;42.058;27.986;2024-02-28T02:09:15;18.80;;;10.20;;
32826;SDS011;51059;42.058;27.986;2024-02-28T02:11:42;20.27;;;9.60;;
32826;SDS011;51059;42.058;27.986;2024-02-28T02:14:08;23.67;;;9.80;;
32826;SDS011;51059;42.058;27.986;2024-02-28T02:16:34;19.13;;;9.27;;
32826;SDS011;51059;42.058;27.986;2024-02-28T02:18:59;17.93;;;9.27;;
32826;SDS011;51059;42.058;27.986;2024-02-28T02:21:31;21.10;;;9.80;;
32826;SDS011;51059;42.058;27.986;2024-02-28T02:24:00;19.70;;;10.00;;
32826;SDS011;51059;42.058;27.986;2024-02-28T02:26:26;18.33;;;9.83;;
32826;SDS011;51059;42.058;27.986;2024-02-28T02:28:52;17.73;;;9.13;;
32826;SDS011;51059;42.058;27.986;2024-02-28T02:31:19;17.23;;;9.20;;
32826;SDS011;51059;42.058;27.986;2024-02-28T02:33:44;18.43;;;9.43;;
32826;SDS011;51059;42.058;27.986;2024-02-28T02:36:11;20.90;;;9.37;;
32826;SDS011;51059;42.058;27.986;2024-02-28T02:38:37;17.30;;;9.50;;
32826;SDS011;51059;42.058;27.986;2024-02-28T02:41:03;18.90;;;9.80;;
32826;SDS011;51059;42.058;27.986;2024-02-28T02:43:29;19.17;;;10.37;;
32826;SDS011;51059;42.058;27.986;2024-02-28T02:45:55;22.80;;;10.53;;
32826;SDS011;51059;42.058;27.986;2024-02-28T02:48:21;17.30;;;9.57;;
32826;SDS011;51059;42.058;27.986;2024-02-28T02:50:47;21.90;;;10.40;;
32826;SDS011;51059;42.058;27.986;2024-02-28T02:53:12;21.93;;;10.60;;
32826;SDS011;51059;42.058;27.986;2024-02-28T02:55:38;17.67;;;10.23;;
32826;SDS011;51059;42.058;27.986;2024-02-28T02:58:04;15.73;;;9.77;;
32826;SDS011;51059;42.058;27.986;2024-02-28T03:00:30;20.43;;;10.57;;
32826;SDS011;51059;42.058;27.986;2024-02-28T03:02:56;18.30;;;9.83;;
32826;SDS011;51059;42.058;27.986;2024-02-28T03:05:22;22.40;;;10.60;;
32826;SDS011;51059;42.058;27.986;2024-02-28T03:07:48;17.90;;;9.97;;
32826;SDS011;51059;42.058;27.986;2024-02-28T03:10:13;19.23;;;10.60;;
32826;SDS011;51059;42.058;27.986;2024-02-28T03:12:39;18.90;;;10.83;;
32826;SDS011;51059;42.058;27.986;2024-02-28T03:15:07;19.17;;;10.67;;
32826;SDS011;51059;42.058;27.986;2024-02-28T03:17:33;22.00;;;10.50;;
32826;SDS011;51059;42.058;27.986;2024-02-28T03:19:59;20.23;;;10.67;;
32826;SDS011;51059;42.058;27.986;2024-02-28T03:22:25;19.37;;;10.83;;
32826;SDS011;51059;42.058;27.986;2024-02-28T03:24:50;21.13;;;11.27;;
32826;SDS011;51059;42.058;27.986;2024-02-28T03:27:16;19.10;;;10.87;;
32826;SDS011;51059;42.058;27.986;2024-02-28T03:29:42;21.37;;;10.53;;
32826;SDS011;51059;42.058;27.986;2024-02-28T03:32:08;19.93;;;10.57;;
32826;SDS011;51059;42.058;27.986;2024-02-28T03:34:34;22.10;;;10.70;;
32826;SDS011;51059;42.058;27.986;2024-02-28T03:37:00;23.93;;;11.20;;
32826;SDS011;51059;42.058;27.986;2024-02-28T03:39:26;22.03;;;10.57;;
32826;SDS011;51059;42.058;27.986;2024-02-28T03:41:52;22.60;;;9.90;;
32826;SDS011;51059;42.058;27.986;2024-02-28T03:44:18;19.97;;;10.60;;
32826;SDS011;51059;42.058;27.986;2024-02-28T03:46:46;19.43;;;10.87;;
32826;SDS011;51059;42.058;27.986;2024-02-28T03:49:12;16.50;;;9.67;;
32826;SDS011;51059;42.058;27.986;2024-02-28T03:51:41;16.70;;;10.00;;
32826;SDS011;51059;42.058;27.986;2024-02-28T03:54:07;18.20;;;10.23;;
32826;SDS011;51059;42.058;27.986;2024-02-28T03:56:33;21.77;;;10.43;;
32826;SDS011;51059;42.058;27.986;2024-02-28T03:59:01;19.93;;;10.17;;
32826;SDS011;51059;42.058;27.986;2024-02-28T04:01:26;22.60;;;9.73;;
32826;SDS011;51059;42.058;27.986;2024-02-28T04:03:52;20.20;;;9.93;;
32826;SDS011;51059;42.058;27.986;2024-02-28T04:06:18;20.80;;;10.23;;
32826;SDS011;51059;42.058;27.986;2024-02-28T04:08:44;21.07;;;10.37;;
32826;SDS011;51059;42.058;27.986;2024-02-28T04:11:10;19.80;;;10.00;;
32826;SDS011;51059;42.058;27.986;2024-02-28T04:13:36;16.47;;;9.40;;
32826;SDS011;51059;42.058;27.986;2024-02-28T04:16:02;16.70;;;9.07;;
32826;SDS011;51059;42.058;27.986;2024-02-28T04:18:29;18.27;;;10.07;;
32826;SDS011;51059;42.058;27.986;2024-02-28T04:20:55;17.63;;;10.80;;
32826;SDS011;51059;42.058;27.986;2024-02-28T04:23:21;22.57;;;11.57;;
32826;SDS011;51059;42.058;27.986;2024-02-28T04:25:47;18.27;;;11.03;;
32826;SDS011;51059;42.058;27.986;2024-02-28T04:28:13;18.43;;;11.13;;
32826;SDS011;51059;42.058;27.986;2024-02-28T04:30:39;19.80;;;10.73;;
32826;SDS011;51059;42.058;27.986;2024-02-28T04:33:05;18.50;;;10.30;;
32826;SDS011;51059;42.058;27.986;2024-02-28T04:35:32;17.90;;;10.50;;
32826;SDS011;51059;42.058;27.986;2024-02-28T04:37:58;18.07;;;11.00;;
32826;SDS011;51059;42.058;27.986;2024-02-28T04:40:24;20.57;;;13.13;;
32826;SDS011;51059;42.058;27.986;2024-02-28T04:42:50;28.17;;;15.53;;
32826;SDS011;51059;42.058;27.986;2024-02-28T04:45:15;20.70;;;13.10;;
32826;SDS011;51059;42.058;27.986;2024-02-28T04:47:41;20.67;;;12.13;;
32826;SDS011;51059;42.058;27.986;2024-02-28T04:50:09;19.27;;;11.27;;
32826;SDS011;51059;42.058;27.986;2024-02-28T04:52:35;21.67;;;14.60;;
32826;SDS011;51059;42.058;27.986;2024-02-28T04:55:01;26.67;;;18.17;;
32826;SDS011;51059;42.058;27.986;2024-02-28T04:57:29;24.70;;;17.10;;
32826;SDS011;51059;42.058;27.986;2024-02-28T04:59:56;19.03;;;13.47;;
32826;SDS011;51059;42.058;27.986;2024-02-28T05:02:21;19.03;;;10.60;;
32826;SDS011;51059;42.058;27.986;2024-02-28T05:04:47;23.10;;;10.87;;
32826;SDS011;51059;42.058;27.986;2024-02-28T05:07:16;16.23;;;10.17;;
32826;SDS011;51059;42.058;27.986;2024-02-28T05:09:42;18.63;;;9.90;;
32826;SDS011;51059;42.058;27.986;2024-02-28T05:12:08;22.33;;;10.53;;
32826;SDS011;51059;42.058;27.986;2024-02-28T05:14:34;18.27;;;10.83;;
32826;SDS011;51059;42.058;27.986;2024-02-28T05:17:00;17.40;;;10.50;;
32826;SDS011;51059;42.058;27.986;2024-02-28T05:19:25;19.63;;;10.53;;
32826;SDS011;51059;42.058;27.986;2024-02-28T05:21:51;20.57;;;11.10;;
32826;SDS011;51059;42.058;27.986;2024-02-28T05:24:17;17.87;;;10.73;;
32826;SDS011;51059;42.058;27.986;2024-02-28T05:26:43;20.77;;;11.20;;
32826;SDS011;51059;42.058;27.986;2024-02-28T05:29:09;19.47;;;11.13;;
32826;SDS011;51059;42.058;27.986;2024-02-28T05:31:35;14.53;;;9.93;;
32826;SDS011;51059;42.058;27.986;2024-02-28T05:34:03;17.27;;;10.43;;
32826;SDS011;51059;42.058;27.986;2024-02-28T05:36:30;19.20;;;9.97;;
32826;SDS011;51059;42.058;27.986;2024-02-28T05:38:57;22.00;;;10.80;;
32826;SDS011;51059;42.058;27.986;2024-02-28T05:41:23;17.80;;;10.40;;
32826;SDS011;51059;42.058;27.986;2024-02-28T05:43:49;14.83;;;10.53;;
32826;SDS011;51059;42.058;27.986;2024-02-28T05:46:16;15.30;;;10.80;;
32826;SDS011;51059;42.058;27.986;2024-02-28T05:48:42;19.43;;;9.17;;
32826;SDS011;51059;42.058;27.986;2024-02-28T05:51:10;14.70;;;9.20;;
32826;SDS011;51059;42.058;27.986;2024-02-28T05:53:39;13.93;;;9.07;;
32826;SDS011;51059;42.058;27.986;2024-02-28T05:56:07;16.90;;;9.97;;
32826;SDS011;51059;42.058;27.986;2024-02-28T05:58:39;15.20;;;9.80;;
32826;SDS011;51059;42.058;27.986;2024-02-28T06:01:06;17.63;;;10.07;;
32826;SDS011;51059;42.058;27.986;2024-02-28T06:03:32;17.40;;;10.00;;
32826;SDS011;51059;42.058;27.986;2024-02-28T06:05:59;18.97;;;9.63;;
32826;SDS011;51059;42.058;27.986;2024-02-28T06:08:26;13.10;;;8.20;;
32826;SDS011;51059;42.058;27.986;2024-02-28T06:10:52;12.97;;;7.63;;
32826;SDS011;51059;42.058;27.986;2024-02-28T06:13:18;14.63;;;7.40;;
32826;SDS011;51059;42.058;27.986;2024-02-28T06:15:45;14.33;;;7.00;;
32826;SDS011;51059;42.058;27.986;2024-02-28T06:18:11;15.17;;;7.77;;
32826;SDS011;51059;42.058;27.986;2024-02-28T06:20:36;14.83;;;7.90;;
32826;SDS011;51059;42.058;27.986;2024-02-28T06:23:03;20.20;;;9.13;;
32826;SDS011;51059;42.058;27.986;2024-02-28T06:25:30;16.50;;;8.73;;
32826;SDS011;51059;42.058;27.986;2024-02-28T06:27:59;19.43;;;9.57;;
32826;SDS011;51059;42.058;27.986;2024-02-28T06:30:25;17.10;;;8.10;;
32826;SDS011;51059;42.058;27.986;2024-02-28T06:32:51;13.53;;;7.77;;
32826;SDS011;51059;42.058;27.986;2024-02-28T06:35:17;19.03;;;8.63;;
32826;SDS011;51059;42.058;27.986;2024-02-28T06:37:43;15.83;;;8.10;;
32826;SDS011;51059;42.058;27.986;2024-02-28T06:40:16;14.77;;;8.30;;
32826;SDS011;51059;42.058;27.986;2024-02-28T06:42:42;16.07;;;9.13;;
32826;SDS011;51059;42.058;27.986;2024-02-28T06:45:08;18.27;;;8.60;;
32826;SDS011;51059;42.058;27.986;2024-02-28T06:47:34;13.30;;;6.97;;
32826;SDS011;51059;42.058;27.986;2024-02-28T06:50:02;18.27;;;7.50;;
32826;SDS011;51059;42.058;27.986;2024-02-28T06:52:29;25.90;;;8.67;;
32826;SDS011;51059;42.058;27.986;2024-02-28T06:54:55;25.90;;;7.97;;
32826;SDS011;51059;42.058;27.986;2024-02-28T06:57:21;24.13;;;8.30;;
32826;SDS011;51059;42.058;27.986;2024-02-28T06:59:47;26.63;;;8.80;;
32826;SDS011;51059;42.058;27.986;2024-02-28T07:02:14;25.03;;;8.57;;
32826;SDS011;51059;42.058;27.986;2024-02-28T07:04:42;25.67;;;8.43;;
32826;SDS011;51059;42.058;27.986;2024-02-28T07:07:08;20.63;;;7.43;;
32826;SDS011;51059;42.058;27.986;2024-02-28T07:09:34;20.80;;;8.30;;
32826;SDS011;51059;42.058;27.986;2024-02-28T07:12:00;22.83;;;7.87;;
32826;SDS011;51059;42.058;27.986;2024-02-28T07:14:29;22.90;;;8.13;;
32826;SDS011;51059;42.058;27.986;2024-02-28T07:16:56;22.87;;;8.20;;
32826;SDS011;51059;42.058;27.986;2024-02-28T07:19:22;17.57;;;7.80;;
32826;SDS011;51059;42.058;27.986;2024-02-28T07:21:47;18.77;;;7.17;;
32826;SDS011;51059;42.058;27.986;2024-02-28T07:24:13;19.40;;;6.17;;
32826;SDS011;51059;42.058;27.986;2024-02-28T07:26:39;14.43;;;5.00;;
32826;SDS011;51059;42.058;27.986;2024-02-28T07:29:06;10.10;;;5.60;;
32826;SDS011;51059;42.058;27.986;2024-02-28T07:31:32;11.93;;;4.87;;
32826;SDS011;51059;42.058;27.986;2024-02-28T07:33:59;24.57;;;5.70;;
32826;SDS011;51059;42.058;27.986;2024-02-28T07:36:26;31.77;;;6.17;;
32826;SDS011;51059;42.058;27.986;2024-02-28T07:38:52;28.53;;;5.70;;
32826;SDS011;51059;42.058;27.986;2024-02-28T07:41:18;14.53;;;5.07;;
32826;SDS011;51059;42.058;27.986;2024-02-28T07:43:44;26.90;;;5.60;;
32826;SDS011;51059;42.058;27.986;2024-02-28T07:46:10;42.67;;;6.10;;
32826;SDS011;51059;42.058;27.986;2024-02-28T07:48:36;25.57;;;5.50;;
32826;SDS011;51059;42.058;27.986;2024-02-28T07:51:09;60.10;;;6.87;;
32826;SDS011;51059;42.058;27.986;2024-02-28T07:53:35;41.77;;;6.53;;
32826;SDS011;51059;42.058;27.986;2024-02-28T07:56:01;50.00;;;6.23;;
32826;SDS011;51059;42.058;27.986;2024-02-28T07:58:29;66.20;;;7.33;;
32826;SDS011;51059;42.058;27.986;2024-02-28T08:00:55;21.83;;;6.77;;
32826;SDS011;51059;42.058;27.986;2024-02-28T08:03:20;28.47;;;7.20;;
32826;SDS011;51059;42.058;27.986;2024-02-28T08:05:46;45.47;;;7.87;;
32826;SDS011;51059;42.058;27.986;2024-02-28T08:08:20;25.00;;;8.03;;
32826;SDS011;51059;42.058;27.986;2024-02-28T08:10:46;128.27;;;11.03;;
32826;SDS011;51059;42.058;27.986;2024-02-28T08:13:14;48.47;;;8.67;;
32826;SDS011;51059;42.058;27.986;2024-02-28T08:15:40;34.10;;;9.00;;
32826;SDS011;51059;42.058;27.986;2024-02-28T08:18:06;23.80;;;8.37;;
32826;SDS011;51059;42.058;27.986;2024-02-28T08:20:32;29.77;;;9.57;;
32826;SDS011;51059;42.058;27.986;2024-02-28T08:22:57;33.40;;;10.00;;
32826;SDS011;51059;42.058;27.986;2024-02-28T08:25:23;23.10;;;9.33;;
32826;SDS011;51059;42.058;27.986;2024-02-28T08:27:49;22.77;;;9.77;;
32826;SDS011;51059;42.058;27.986;2024-02-28T08:30:15;24.50;;;10.13;;
32826;SDS011;51059;42.058;27.986;2024-02-28T08:32:41;29.97;;;10.47;;
32826;SDS011;51059;42.058;27.986;2024-02-28T08:35:08;27.60;;;10.33;;
32826;SDS011;51059;42.058;27.986;2024-02-28T08:37:34;25.83;;;10.57;;
32826;SDS011;51059;42.058;27.986;2024-02-28T08:40:00;27.87;;;10.87;;
32826;SDS011;51059;42.058;27.986;2024-02-28T08:42:26;26.87;;;10.70;;
32826;SDS011;51059;42.058;27.986;2024-02-28T08:44:53;27.77;;;11.17;;
32826;SDS011;51059;42.058;27.986;2024-02-28T08:47:27;21.83;;;10.20;;
32826;SDS011;51059;42.058;27.986;2024-02-28T08:49:53;26.53;;;10.13;;
32826;SDS011;51059;42.058;27.986;2024-02-28T08:52:19;23.80;;;9.37;;
32826;SDS011;51059;42.058;27.986;2024-02-28T08:54:45;23.73;;;9.77;;
32826;SDS011;51059;42.058;27.986;2024-02-28T08:57:11;18.70;;;9.57;;
32826;SDS011;51059;42.058;27.986;2024-02-28T08:59:37;25.20;;;9.30;;
32826;SDS011;51059;42.058;27.986;2024-02-28T09:02:03;21.50;;;9.43;;
32826;SDS011;51059;42.058;27.986;2024-02-28T09:04:30;16.70;;;9.33;;
32826;SDS011;51059;42.058;27.986;2024-02-28T09:06:56;23.00;;;9.23;;
32826;SDS011;51059;42.058;27.986;2024-02-28T09:09:22;24.33;;;9.93;;
32826;SDS011;51059;42.058;27.986;2024-02-28T09:11:48;22.23;;;10.20;;
32826;SDS011;51059;42.058;27.986;2024-02-28T09:14:14;22.33;;;10.17;;
32826;SDS011;51059;42.058;27.986;2024-02-28T09:16:41;19.90;;;9.97;;
32826;SDS011;51059;42.058;27.986;2024-02-28T09:19:13;21.70;;;9.97;;
32826;SDS011;51059;42.058;27.986;2024-02-28T09:21:38;21.00;;;10.20;;
32826;SDS011;51059;42.058;27.986;2024-02-28T09:24:06;17.60;;;9.13;;
32826;SDS011;51059;42.058;27.986;2024-02-28T09:26:32;20.33;;;9.70;;
32826;SDS011;51059;42.058;27.986;2024-02-28T09:28:58;22.53;;;10.20;;
32826;SDS011;51059;42.058;27.986;2024-02-28T09:31:24;23.80;;;10.33;;
32826;SDS011;51059;42.058;27.986;2024-02-28T09:33:50;27.80;;;10.50;;
32826;SDS011;51059;42.058;27.986;2024-02-28T09:36:16;18.50;;;9.70;;
32826;SDS011;51059;42.058;27.986;2024-02-28T09:38:41;18.77;;;10.20;;
32826;SDS011;51059;42.058;27.986;2024-02-28T09:41:09;24.80;;;11.07;;
32826;SDS011;51059;42.058;27.986;2024-02-28T09:43:41;22.37;;;9.93;;
32826;SDS011;51059;42.058;27.986;2024-02-28T09:46:07;26.30;;;10.90;;
32826;SDS011;51059;42.058;27.986;2024-02-28T09:48:40;21.87;;;10.67;;
32826;SDS011;51059;42.058;27.986;2024-02-28T09:51:09;18.00;;;9.70;;
32826;SDS011;51059;42.058;27.986;2024-02-28T09:53:38;20.57;;;9.27;;
32826;SDS011;51059;42.058;27.986;2024-02-28T09:56:05;20.47;;;10.50;;
32826;SDS011;51059;42.058;27.986;2024-02-28T09:58:32;17.13;;;10.40;;
32826;SDS011;51059;42.058;27.986;2024-02-28T10:01:01;17.23;;;9.47;;
32826;SDS011;51059;42.058;27.986;2024-02-28T10:03:28;19.27;;;10.47;;
32826;SDS011;51059;42.058;27.986;2024-02-28T10:05:55;19.67;;;10.00;;
32826;SDS011;51059;42.058;27.986;2024-02-28T10:08:21;16.40;;;9.57;;
32826;SDS011;51059;42.058;27.986;2024-02-28T10:10:47;17.70;;;8.93;;
32826;SDS011;51059;42.058;27.986;2024-02-28T10:13:17;18.47;;;9.20;;
32826;SDS011;51059;42.058;27.986;2024-02-28T10:15:43;15.63;;;9.33;;
32826;SDS011;51059;42.058;27.986;2024-02-28T10:18:08;20.83;;;9.33;;
32826;SDS011;51059;42.058;27.986;2024-02-28T10:20:34;18.87;;;9.20;;
32826;SDS011;51059;42.058;27.986;2024-02-28T10:23:03;17.63;;;9.03;;
32826;SDS011;51059;42.058;27.986;2024-02-28T10:25:56;19.00;;;9.23;;
32826;SDS011;51059;42.058;27.986;2024-02-28T10:28:22;20.60;;;9.00;;
32826;SDS011;51059;42.058;27.986;2024-02-28T10:30:48;23.23;;;10.50;;
32826;SDS011;51059;42.058;27.986;2024-02-28T10:33:15;23.13;;;10.67;;
32826;SDS011;51059;42.058;27.986;2024-02-28T10:35:41;25.43;;;10.53;;
32826;SDS011;51059;42.058;27.986;2024-02-28T10:38:12;21.57;;;9.90;;
32826;SDS011;51059;42.058;27.986;2024-02-28T10:40:42;23.47;;;10.07;;
32826;SDS011;51059;42.058;27.986;2024-02-28T10:43:08;18.33;;;9.70;;
32826;SDS011;51059;42.058;27.986;2024-02-28T10:45:38;19.77;;;10.80;;
32826;SDS011;51059;42.058;27.986;2024-02-28T10:48:05;20.03;;;10.20;;
32826;SDS011;51059;42.058;27.986;2024-02-28T10:50:31;21.23;;;10.73;;
32826;SDS011;51059;42.058;27.986;2024-02-28T10:53:02;25.73;;;10.97;;
32826;SDS011;51059;42.058;27.986;2024-02-28T10:55:37;26.90;;;10.93;;
32826;SDS011;51059;42.058;27.986;2024-02-28T10:58:09;23.60;;;11.20;;
32826;SDS011;51059;42.058;27.986;2024-02-28T11:00:40;21.57;;;10.73;;
32826;SDS011;51059;42.058;27.986;2024-02-28T11:03:09;26.17;;;11.07;;
32826;SDS011;51059;42.058;27.986;2024-02-28T11:05:39;22.80;;;11.10;;
32826;SDS011;51059;42.058;27.986;2024-02-28T11:08:10;28.70;;;11.63;;
32826;SDS011;51059;42.058;27.986;2024-02-28T11:10:40;28.53;;;11.80;;
32826;SDS011;51059;42.058;27.986;2024-02-28T11:13:21;24.83;;;11.53;;
32826;SDS011;51059;42.058;27.986;2024-02-28T11:15:50;22.70;;;11.37;;
32826;SDS011;51059;42.058;27.986;2024-02-28T11:18:16;27.40;;;12.20;;
32826;SDS011;51059;42.058;27.986;2024-02-28T11:20:43;23.83;;;10.70;;
32826;SDS011;51059;42.058;27.986;2024-02-28T11:23:11;26.07;;;10.83;;
32826;SDS011;51059;42.058;27.986;2024-02-28T11:25:42;26.40;;;11.60;;
32826;SDS011;51059;42.058;27.986;2024-02-28T11:28:08;22.27;;;11.80;;
32826;SDS011;51059;42.058;27.986;2024-02-28T11:30:34;26.87;;;11.33;;
32826;SDS011;51059;42.058;27.986;2024-02-28T11:33:01;25.13;;;10.53;;
32826;SDS011;51059;42.058;27.986;2024-02-28T11:35:27;23.77;;;11.13;;
32826;SDS011;51059;42.058;27.986;2024-02-28T11:37:56;21.37;;;11.30;;
32826;SDS011;51059;42.058;27.986;2024-02-28T11:40:25;27.37;;;12.40;;
32826;SDS011;51059;42.058;27.986;2024-02-28T11:42:52;24.40;;;11.63;;
32826;SDS011;51059;42.058;27.986;2024-02-28T11:45:20;24.17;;;11.47;;
32826;SDS011;51059;42.058;27.986;2024-02-28T11:47:46;23.30;;;11.70;;
32826;SDS011;51059;42.058;27.986;2024-02-28T11:50:13;26.90;;;12.30;;
32826;SDS011;51059;42.058;27.986;2024-02-28T11:52:43;25.43;;;12.23;;
32826;SDS011;51059;42.058;27.986;2024-02-28T11:55:10;25.87;;;12.50;;
32826;SDS011;51059;42.058;27.986;2024-02-28T11:57:38;27.57;;;12.60;;
32826;SDS011;51059;42.058;27.986;2024-02-28T12:00:06;30.43;;;13.20;;
32826;SDS011;51059;42.058;27.986;2024-02-28T12:02:32;33.17;;;13.77;;
32826;SDS011;51059;42.058;27.986;2024-02-28T12:05:02;21.97;;;13.07;;
32826;SDS011;51059;42.058;27.986;2024-02-28T12:07:30;22.70;;;13.50;;
32826;SDS011;51059;42.058;27.986;2024-02-28T12:09:55;26.07;;;14.60;;
32826;SDS011;51059;42.058;27.986;2024-02-28T12:12:22;24.83;;;14.30;;
32826;SDS011;51059;42.058;27.986;2024-02-28T12:14:48;23.30;;;13.70;;
32826;SDS011;51059;42.058;27.986;2024-02-28T12:17:18;27.40;;;14.30;;
32826;SDS011;51059;42.058;27.986;2024-02-28T12:19:44;24.23;;;14.17;;
32826;SDS011;51059;42.058;27.986;2024-02-28T12:22:10;21.20;;;13.37;;
32826;SDS011;51059;42.058;27.986;2024-02-28T12:24:36;22.37;;;13.20;;
32826;SDS011;51059;42.058;27.986;2024-02-28T12:27:02;19.03;;;12.43;;
32826;SDS011;51059;42.058;27.986;2024-02-28T12:29:28;24.13;;;12.90;;
32826;SDS011;51059;42.058;27.986;2024-02-28T12:31:54;21.37;;;12.20;;
32826;SDS011;51059;42.058;27.986;2024-02-28T12:34:21;26.10;;;11.73;;
32826;SDS011;51059;42.058;27.986;2024-02-28T12:36:47;17.20;;;11.27;;
32826;SDS011;51059;42.058;27.986;2024-02-28T12:39:13;16.67;;;10.90;;
32826;SDS011;51059;42.058;27.986;2024-02-28T12:41:39;18.90;;;10.63;;
32826;SDS011;51059;42.058;27.986;2024-02-28T12:44:07;22.07;;;11.57;;
32826;SDS011;51059;42.058;27.986;2024-02-28T12:46:34;20.90;;;11.90;;
32826;SDS011;51059;42.058;27.986;2024-02-28T12:49:00;21.67;;;11.70;;
32826;SDS011;51059;42.058;27.986;2024-02-28T12:51:39;24.33;;;12.77;;
32826;SDS011;51059;42.058;27.986;2024-02-28T12:54:06;22.63;;;12.70;;
32826;SDS011;51059;42.058;27.986;2024-02-28T12:56:33;28.73;;;13.00;;
32826;SDS011;51059;42.058;27.986;2024-02-28T12:59:03;26.00;;;13.27;;
32826;SDS011;51059;42.058;27.986;2024-02-28T13:01:29;32.20;;;14.10;;
32826;SDS011;51059;42.058;27.986;2024-02-28T13:03:56;26.17;;;13.43;;
32826;SDS011;51059;42.058;27.986;2024-02-28T13:06:23;22.53;;;13.60;;
32826;SDS011;51059;42.058;27.986;2024-02-28T13:08:49;21.43;;;13.30;;
32826;SDS011;51059;42.058;27.986;2024-02-28T13:11:21;23.07;;;13.67;;
32826;SDS011;51059;42.058;27.986;2024-02-28T13:13:48;20.87;;;12.17;;
32826;SDS011;51059;42.058;27.986;2024-02-28T13:16:18;25.37;;;13.87;;
32826;SDS011;51059;42.058;27.986;2024-02-28T13:18:45;23.53;;;13.30;;
32826;SDS011;51059;42.058;27.986;2024-02-28T13:21:11;25.87;;;14.00;;
32826;SDS011;51059;42.058;27.986;2024-02-28T13:23:39;21.87;;;13.20;;
32826;SDS011;51059;42.058;27.986;2024-02-28T13:26:05;22.10;;;13.93;;
32826;SDS011;51059;42.058;27.986;2024-02-28T13:28:32;20.73;;;13.17;;
32826;SDS011;51059;42.058;27.986;2024-02-28T13:31:00;23.30;;;14.53;;
32826;SDS011;51059;42.058;27.986;2024-02-28T13:33:26;23.13;;;14.23;;
32826;SDS011;51059;42.058;27.986;2024-02-28T13:35:53;24.43;;;14.50;;
32826;SDS011;51059;42.058;27.986;2024-02-28T13:38:20;22.07;;;13.67;;
32826;SDS011;51059;42.058;27.986;2024-02-28T13:40:49;21.67;;;14.03;;
32826;SDS011;51059;42.058;27.986;2024-02-28T13:43:16;22.90;;;15.27;;
32826;SDS011;51059;42.058;27.986;2024-02-28T13:45:47;26.40;;;14.97;;
32826;SDS011;51059;42.058;27.986;2024-02-28T13:48:21;21.90;;;15.10;;
32826;SDS011;51059;42.058;27.986;2024-02-28T13:50:51;24.27;;;15.27;;
32826;SDS011;51059;42.058;27.986;2024-02-28T13:53:16;27.57;;;15.97;;
32826;SDS011;51059;42.058;27.986;2024-02-28T13:55:43;28.20;;;15.70;;
32826;SDS011;51059;42.058;27.986;2024-02-28T13:58:13;21.97;;;15.77;;
32826;SDS011;51059;42.058;27.986;2024-02-28T14:00:43;32.17;;;16.60;;
32826;SDS011;51059;42.058;27.986;2024-02-28T14:03:10;25.93;;;16.13;;
32826;SDS011;51059;42.058;27.986;2024-02-28T14:05:36;23.23;;;16.47;;
32826;SDS011;51059;42.058;27.986;2024-02-28T14:08:02;24.83;;;17.67;;
32826;SDS011;51059;42.058;27.986;2024-02-28T14:10:33;27.17;;;16.73;;
32826;SDS011;51059;42.058;27.986;2024-02-28T14:13:00;22.50;;;15.80;;